createdAt,value
2023-05-22T00:00:53.056Z,58.54
2023-05-22T00:03:24.753Z,59.39
2023-05-22T00:05:59.233Z,60.12
2023-05-22T00:08:29.885Z,60.07
2023-05-22T00:10:59.224Z,59.36
2023-05-22T00:13:28.480Z,59.07
2023-05-22T00:15:57.814Z,58.77
2023-05-22T00:18:27.446Z,58.78
2023-05-22T00:20:58.224Z,58.95
2023-05-22T00:23:28.426Z,58.83
2023-05-22T00:25:57.890Z,58.86
2023-05-22T00:28:28.721Z,59.15
2023-05-22T00:30:57.981Z,59.12
2023-05-22T00:33:27.216Z,59.67
2023-05-22T00:35:56.379Z,59.88
2023-05-22T00:38:34.770Z,60.87
2023-05-22T00:41:07.097Z,61.47
2023-05-22T00:43:36.592Z,60.93
2023-05-22T00:46:07.941Z,61.35
2023-05-22T00:48:37.416Z,61.39
2023-05-22T00:51:08.387Z,62.44
2023-05-22T00:53:37.688Z,64.21
2023-05-22T00:56:07.703Z,63.16
2023-05-22T00:58:37.930Z,62.31
2023-05-22T01:01:09.900Z,62.20
2023-05-22T01:03:45.310Z,62.51
2023-05-22T01:06:16.206Z,62.80
2023-05-22T01:08:45.808Z,62.94
2023-05-22T01:11:32.213Z,62.94
2023-05-22T01:14:26.373Z,62.19
2023-05-22T01:17:29.994Z,67.33
2023-05-22T01:20:29.187Z,71.03
2023-05-22T01:23:35.333Z,69.55
2023-05-22T01:26:22.849Z,69.59
2023-05-22T01:29:35.360Z,68.58
2023-05-22T01:32:05.669Z,69.82
2023-05-22T01:34:35.576Z,71.18
2023-05-22T01:37:05.535Z,71.14
2023-05-22T01:39:34.497Z,73.24
2023-05-22T01:42:04.300Z,71.86
2023-05-22T01:44:33.292Z,70.53
2023-05-22T01:47:05.460Z,72.29
2023-05-22T01:49:36.036Z,70.51
2023-05-22T01:52:28.361Z,77.00
2023-05-22T01:55:13.903Z,76.02
2023-05-22T01:57:57.980Z,77.16
2023-05-22T02:00:28.278Z,75.60
2023-05-22T02:03:09.172Z,76.12
2023-05-22T02:05:40.242Z,77.34
2023-05-22T02:08:09.861Z,74.66
2023-05-22T02:10:43.050Z,81.07
2023-05-22T02:13:12.909Z,81.66
2023-05-22T02:15:42.399Z,78.29
2023-05-22T02:18:14.829Z,79.76
2023-05-22T02:20:46.290Z,77.85
2023-05-22T02:23:15.353Z,79.31
2023-05-22T02:25:44.358Z,78.17
2023-05-22T02:28:13.424Z,83.20
2023-05-22T02:30:42.384Z,83.89
2023-05-22T02:33:11.673Z,83.53
2023-05-22T02:35:40.957Z,83.40
2023-05-22T02:38:10.070Z,85.28
2023-05-22T02:40:39.235Z,85.31
2023-05-22T02:43:08.548Z,85.68
2023-05-22T02:45:38.242Z,83.99
2023-05-22T02:48:08.564Z,84.80
2023-05-22T02:50:37.547Z,85.44
2023-05-22T02:53:07.544Z,87.65
2023-05-22T02:55:36.687Z,87.81
2023-05-22T02:58:06.098Z,84.47
2023-05-22T03:00:35.019Z,83.85
2023-05-22T03:03:04.333Z,86.45
2023-05-22T03:05:33.904Z,86.56
2023-05-22T03:08:03.195Z,87.57
2023-05-22T03:10:32.285Z,86.87
2023-05-22T03:13:01.819Z,86.09
2023-05-22T03:15:31.207Z,89.43
2023-05-22T03:18:03.982Z,91.21
2023-05-22T03:20:34.283Z,91.11
2023-05-22T03:23:04.050Z,92.08
2023-05-22T03:25:32.987Z,92.75
2023-05-22T03:28:01.949Z,92.91
2023-05-22T03:30:32.926Z,91.24
2023-05-22T03:33:12.004Z,88.35
2023-05-22T03:35:43.513Z,89.14
2023-05-22T03:38:13.140Z,86.61
2023-05-22T03:40:42.118Z,92.82
2023-05-22T03:43:11.445Z,88.98
2023-05-22T03:45:40.561Z,88.84
2023-05-22T03:48:11.020Z,87.32
2023-05-22T03:50:40.044Z,91.80
2023-05-22T03:53:09.544Z,87.80
2023-05-22T03:55:39.350Z,91.90
2023-05-22T03:58:08.489Z,91.45
2023-05-22T04:00:38.723Z,90.04
2023-05-22T04:03:13.521Z,89.27
2023-05-22T04:05:42.538Z,88.88
2023-05-22T04:08:12.358Z,86.82
2023-05-22T04:10:42.724Z,90.76
2023-05-22T04:13:11.530Z,90.66
2023-05-22T04:15:43.834Z,87.55
2023-05-22T04:18:13.155Z,87.95
2023-05-22T04:20:43.578Z,87.69
2023-05-22T04:23:13.454Z,87.74
2023-05-22T04:25:42.518Z,87.18
2023-05-22T04:28:13.286Z,87.27
2023-05-22T04:30:42.307Z,87.60
2023-05-22T04:33:11.594Z,87.57
2023-05-22T04:35:44.596Z,86.91
2023-05-22T04:38:13.549Z,82.77
2023-05-22T04:40:42.511Z,83.57
2023-05-22T04:43:14.515Z,79.46
2023-05-22T04:45:43.304Z,78.95
2023-05-22T04:48:13.004Z,77.83
2023-05-22T04:50:42.304Z,77.86
2023-05-22T04:53:12.937Z,75.36
2023-05-22T04:55:42.026Z,73.33
2023-05-22T04:58:11.253Z,72.71
2023-05-22T05:00:40.888Z,72.69
2023-05-22T05:03:12.019Z,71.08
2023-05-22T05:05:41.099Z,70.54
2023-05-22T05:08:10.595Z,70.10
2023-05-22T05:10:39.783Z,69.83
2023-05-22T05:13:09.077Z,68.36
2023-05-22T05:15:40.807Z,68.59
2023-05-22T05:18:10.166Z,68.95
2023-05-22T05:20:39.213Z,68.66
2023-05-22T05:23:10.500Z,68.32
2023-05-22T05:25:39.902Z,67.33
2023-05-22T05:28:12.339Z,67.20
2023-05-22T05:30:42.814Z,67.13
2023-05-22T05:33:29.963Z,66.94
2023-05-22T05:36:07.349Z,66.75
2023-05-22T05:38:37.104Z,66.66
2023-05-22T05:41:06.830Z,66.50
2023-05-22T05:43:37.471Z,66.16
2023-05-22T05:46:09.054Z,66.59
2023-05-22T05:48:38.129Z,65.81
2023-05-22T05:51:07.472Z,65.25
2023-05-22T05:53:43.725Z,65.47
2023-05-22T05:56:12.849Z,65.43
2023-05-22T05:58:42.091Z,63.49
2023-05-22T06:01:31.430Z,64.61
2023-05-22T06:04:04.404Z,65.08
2023-05-22T06:06:36.574Z,65.23
2023-05-22T06:09:11.370Z,64.15
2023-05-22T06:12:29.975Z,64.33
2023-05-22T06:14:58.936Z,64.02
2023-05-22T06:17:28.130Z,63.70
2023-05-22T06:19:56.725Z,62.56
2023-05-22T06:22:29.598Z,62.15
2023-05-22T06:24:58.463Z,61.50
2023-05-22T06:27:28.446Z,61.46
2023-05-22T06:29:57.403Z,61.30
2023-05-22T06:32:28.871Z,61.30
2023-05-22T06:34:57.848Z,61.61
2023-05-22T06:37:27.176Z,60.48
2023-05-22T06:39:56.221Z,60.78
2023-05-22T06:42:33.579Z,59.48
2023-05-22T06:45:28.600Z,59.87
2023-05-22T06:48:43.958Z,59.97
2023-05-22T06:51:17.741Z,59.70
2023-05-22T06:53:48.964Z,58.77
2023-05-22T06:56:25.049Z,58.99
2023-05-22T06:59:04.793Z,58.32
2023-05-22T07:01:53.267Z,58.54
2023-05-22T07:04:31.206Z,59.22
2023-05-22T07:07:08.023Z,58.98
2023-05-22T07:09:36.672Z,59.28
2023-05-22T07:12:06.958Z,57.86
2023-05-22T07:14:35.914Z,57.25
2023-05-22T07:17:05.820Z,58.11
2023-05-22T07:19:38.807Z,58.14
2023-05-22T07:22:07.563Z,56.87
2023-05-22T07:24:36.666Z,57.78
2023-05-22T07:27:06.100Z,57.03
2023-05-22T07:29:35.809Z,56.63
2023-05-22T07:32:05.346Z,56.69
2023-05-22T07:34:34.587Z,55.80
2023-05-22T07:37:09.266Z,56.08
2023-05-22T07:39:38.348Z,56.33
2023-05-22T07:42:07.806Z,57.13
2023-05-22T07:44:40.182Z,55.43
2023-05-22T07:47:09.392Z,54.12
2023-05-22T07:49:38.404Z,55.47
2023-05-22T07:52:07.474Z,55.40
2023-05-22T07:54:36.447Z,55.70
2023-05-22T07:57:09.258Z,55.15
2023-05-22T07:59:39.844Z,54.71
2023-05-22T08:02:10.440Z,54.50
2023-05-22T08:04:39.511Z,53.38
2023-05-22T08:07:08.310Z,53.08
2023-05-22T08:09:37.405Z,53.18
2023-05-22T08:12:07.684Z,53.38
2023-05-22T08:14:36.607Z,53.90
2023-05-22T08:17:05.701Z,52.41
2023-05-22T08:19:34.774Z,52.65
2023-05-22T08:22:03.822Z,52.05
2023-05-22T08:24:32.581Z,52.77
2023-05-22T08:27:01.356Z,52.37
2023-05-22T08:29:30.294Z,52.20
2023-05-22T08:31:59.187Z,52.65
2023-05-22T08:34:28.790Z,52.02
2023-05-22T08:36:57.581Z,51.93
2023-05-22T08:39:26.552Z,50.64
2023-05-22T08:41:55.314Z,51.81
2023-05-22T08:44:25.565Z,51.67
2023-05-22T08:46:56.943Z,51.52
2023-05-22T08:49:26.232Z,51.94
2023-05-22T08:52:00.847Z,51.24
2023-05-22T08:54:31.182Z,50.82
2023-05-22T08:56:59.875Z,50.20
2023-05-22T08:59:29.309Z,49.86
2023-05-22T09:01:58.464Z,50.43
2023-05-22T09:04:28.670Z,49.64
2023-05-22T09:06:57.551Z,48.23
2023-05-22T09:09:26.221Z,47.63
2023-05-22T09:11:55.540Z,46.64
2023-05-22T09:14:25.591Z,46.03
2023-05-22T09:16:55.353Z,46.40
2023-05-22T09:19:24.379Z,46.82
2023-05-22T09:21:55.147Z,46.72
2023-05-22T09:24:23.928Z,46.65
2023-05-22T09:26:53.191Z,45.00
2023-05-22T09:29:22.860Z,44.02
2023-05-22T09:31:51.781Z,43.98
2023-05-22T09:34:20.694Z,44.38
2023-05-22T09:36:51.453Z,44.34
2023-05-22T09:39:20.325Z,44.13
2023-05-22T09:41:49.361Z,43.77
2023-05-22T09:44:18.216Z,44.28
2023-05-22T09:46:48.201Z,44.26
2023-05-22T09:49:17.714Z,43.97
2023-05-22T09:51:49.821Z,43.07
2023-05-22T09:54:20.828Z,43.40
2023-05-22T09:56:50.737Z,43.21
2023-05-22T09:59:27.533Z,43.92
2023-05-22T10:01:57.438Z,41.79
2023-05-22T10:04:28.319Z,41.41
2023-05-22T10:06:58.015Z,41.52
2023-05-22T10:09:31.399Z,41.64
2023-05-22T10:12:07.403Z,41.06
2023-05-22T10:14:36.984Z,42.44
2023-05-22T10:17:07.171Z,42.18
2023-05-22T10:19:39.747Z,41.98
2023-05-22T10:22:15.202Z,42.79
2023-05-22T10:24:44.113Z,39.82
2023-05-22T10:27:13.088Z,39.50
2023-05-22T10:29:50.709Z,40.34
2023-05-22T10:32:22.337Z,39.76
2023-05-22T10:34:57.447Z,39.94
2023-05-22T10:37:26.483Z,38.42
2023-05-22T10:40:09.294Z,39.45
2023-05-22T10:42:38.901Z,38.36
2023-05-22T10:45:08.374Z,37.61
2023-05-22T10:47:37.395Z,38.45
2023-05-22T10:50:11.472Z,38.59
2023-05-22T10:52:40.805Z,38.32
2023-05-22T10:55:11.132Z,37.43
2023-05-22T10:57:41.049Z,38.95
2023-05-22T11:00:16.435Z,38.89
2023-05-22T11:02:47.654Z,37.67
2023-05-22T11:05:25.669Z,37.15
2023-05-22T11:08:10.199Z,37.04
2023-05-22T11:11:01.747Z,36.86
2023-05-22T11:13:31.588Z,36.31
2023-05-22T11:16:04.688Z,36.77
2023-05-22T11:18:33.551Z,36.08
2023-05-22T11:21:04.037Z,36.94
2023-05-22T11:23:34.939Z,36.91
2023-05-22T11:26:21.760Z,37.61
2023-05-22T11:28:52.136Z,37.87
2023-05-22T11:31:23.465Z,35.99
2023-05-22T11:33:52.496Z,35.20
2023-05-22T11:36:21.774Z,36.15
2023-05-22T11:38:50.731Z,35.23
2023-05-22T11:41:19.999Z,33.89
2023-05-22T11:43:48.991Z,33.28
2023-05-22T11:46:18.259Z,33.85
2023-05-22T11:48:48.055Z,33.55
2023-05-22T11:51:20.666Z,33.42
2023-05-22T11:53:49.529Z,34.60
2023-05-22T11:56:22.241Z,32.89
2023-05-22T11:58:52.040Z,34.54
2023-05-22T12:01:20.758Z,33.24
2023-05-22T12:03:49.595Z,32.54
2023-05-22T12:06:18.671Z,31.07
2023-05-22T12:08:47.643Z,29.66
2023-05-22T12:11:16.940Z,29.03
2023-05-22T12:13:46.130Z,29.14
2023-05-22T12:16:19.581Z,30.73
2023-05-22T12:18:48.421Z,31.18
2023-05-22T12:21:19.622Z,32.25
2023-05-22T12:23:51.786Z,31.69
2023-05-22T12:26:21.677Z,32.43
2023-05-22T12:28:54.721Z,31.78
2023-05-22T12:31:24.002Z,30.46
2023-05-22T12:33:56.918Z,30.33
2023-05-22T12:36:36.193Z,30.00
2023-05-22T12:39:09.501Z,29.35
2023-05-22T12:41:39.027Z,27.95
2023-05-22T12:44:07.699Z,27.83
2023-05-22T12:46:36.244Z,26.79
2023-05-22T12:49:05.112Z,25.86
2023-05-22T12:51:35.194Z,25.74
2023-05-22T12:54:04.539Z,25.63
2023-05-22T12:56:33.108Z,25.22
2023-05-22T12:59:01.650Z,24.31
2023-05-22T13:01:30.290Z,24.58
2023-05-22T13:03:58.926Z,25.27
2023-05-22T13:06:29.090Z,25.43
2023-05-22T13:08:58.880Z,24.66
2023-05-22T13:11:27.680Z,24.78
2023-05-22T13:13:56.431Z,24.48
2023-05-22T13:16:24.978Z,25.04
2023-05-22T13:18:53.874Z,26.51
2023-05-22T13:21:24.113Z,25.63
2023-05-22T13:23:54.513Z,24.91
2023-05-22T13:26:23.271Z,25.20
2023-05-22T13:28:52.425Z,24.21
2023-05-22T13:31:21.460Z,23.37
2023-05-22T13:33:50.080Z,23.63
2023-05-22T13:36:18.730Z,23.31
2023-05-22T13:38:47.448Z,23.68
2023-05-22T13:41:16.100Z,23.21
2023-05-22T13:43:44.840Z,25.02
2023-05-22T13:46:13.394Z,24.90
2023-05-22T13:48:42.171Z,24.63
2023-05-22T13:51:11.088Z,24.40
2023-05-22T13:53:40.125Z,23.79
2023-05-22T13:56:08.702Z,23.68
2023-05-22T13:58:37.252Z,23.39
2023-05-22T14:01:06.147Z,22.68
2023-05-22T14:03:35.099Z,23.19
2023-05-22T14:06:04.021Z,23.56
2023-05-22T14:08:33.075Z,23.12
2023-05-22T14:11:01.707Z,22.90
2023-05-22T14:13:30.454Z,22.05
2023-05-22T14:15:59.167Z,22.51
2023-05-22T14:18:28.133Z,21.72
2023-05-22T14:20:56.715Z,22.00
2023-05-22T14:23:25.424Z,22.64
2023-05-22T14:25:54.693Z,22.67
2023-05-22T14:28:23.498Z,22.61
2023-05-22T14:30:52.566Z,22.11
2023-05-22T14:33:21.722Z,21.87
2023-05-22T14:35:51.730Z,22.72
2023-05-22T14:38:20.539Z,22.42
2023-05-22T14:40:50.214Z,22.66
2023-05-22T14:43:19.661Z,23.10
2023-05-22T14:45:48.296Z,22.32
2023-05-22T14:48:17.361Z,22.94
2023-05-22T14:50:47.116Z,22.24
2023-05-22T14:53:16.301Z,23.32
2023-05-22T14:55:45.221Z,22.74
2023-05-22T14:58:14.143Z,21.44
2023-05-22T15:00:47.362Z,22.28
2023-05-22T15:03:17.112Z,23.08
2023-05-22T15:05:45.871Z,22.25
2023-05-22T15:08:14.892Z,22.50
2023-05-22T15:10:43.437Z,21.94
2023-05-22T15:13:12.341Z,21.50
2023-05-22T15:15:42.006Z,21.85
2023-05-22T15:18:11.769Z,21.79
2023-05-22T15:20:40.656Z,22.23
2023-05-22T15:23:09.385Z,21.85
2023-05-22T15:25:37.997Z,21.71
2023-05-22T15:28:07.446Z,22.19
2023-05-22T15:30:36.797Z,22.44
2023-05-22T15:33:05.748Z,22.16
2023-05-22T15:35:34.566Z,22.63
2023-05-22T15:38:03.597Z,22.87
2023-05-22T15:40:32.666Z,22.76
2023-05-22T15:43:04.206Z,22.25
2023-05-22T15:45:34.264Z,23.18
2023-05-22T15:48:06.890Z,23.36
2023-05-22T15:50:35.493Z,23.14
2023-05-22T15:53:04.448Z,23.47
2023-05-22T15:55:34.535Z,23.34
2023-05-22T15:58:06.246Z,23.22
2023-05-22T16:00:41.388Z,23.38
2023-05-22T16:03:13.677Z,23.58
2023-05-22T16:05:42.787Z,23.55
2023-05-22T16:08:11.556Z,23.62
2023-05-22T16:10:42.247Z,23.22
2023-05-22T16:13:11.208Z,22.95
2023-05-22T16:15:40.952Z,22.97
2023-05-22T16:18:11.514Z,23.79
2023-05-22T16:20:40.734Z,23.14
2023-05-22T16:23:09.538Z,23.30
2023-05-22T16:25:38.614Z,23.55
2023-05-22T16:28:07.630Z,24.60
2023-05-22T16:30:36.827Z,23.67
2023-05-22T16:33:05.836Z,24.33
2023-05-22T16:35:35.197Z,24.15
2023-05-22T16:38:04.000Z,23.98
2023-05-22T16:40:32.999Z,24.03
2023-05-22T16:43:01.776Z,23.95
2023-05-22T16:45:30.589Z,24.19
2023-05-22T16:47:59.413Z,25.61
2023-05-22T16:50:28.667Z,24.32
2023-05-22T16:52:57.533Z,25.13
2023-05-22T16:55:26.239Z,25.79
2023-05-22T16:57:55.077Z,26.28
2023-05-22T17:00:24.048Z,27.08
2023-05-22T17:02:53.128Z,28.20
2023-05-22T17:05:22.465Z,29.36
2023-05-22T17:07:51.371Z,30.05
2023-05-22T17:10:19.995Z,30.77
2023-05-22T17:12:48.788Z,32.86
2023-05-22T17:15:17.651Z,33.68
2023-05-22T17:17:46.431Z,33.26
2023-05-22T17:20:15.576Z,33.36
2023-05-22T17:22:44.832Z,34.11
2023-05-22T17:25:13.924Z,34.95
2023-05-22T17:27:42.679Z,36.86
2023-05-22T17:30:11.862Z,36.51
2023-05-22T17:32:40.908Z,36.36
2023-05-22T17:35:09.741Z,35.98
2023-05-22T17:37:38.592Z,35.89
2023-05-22T17:40:08.445Z,35.30
2023-05-22T17:42:37.300Z,38.06
2023-05-22T17:45:06.503Z,38.54
2023-05-22T17:47:35.291Z,38.80
2023-05-22T17:50:04.304Z,38.24
2023-05-22T17:52:33.483Z,37.30
2023-05-22T17:55:02.485Z,38.33
2023-05-22T17:57:32.434Z,38.07
2023-05-22T18:00:01.290Z,40.45
2023-05-22T18:02:40.249Z,41.67
2023-05-22T18:05:09.689Z,40.96
2023-05-22T18:07:38.541Z,41.03
2023-05-22T18:10:07.833Z,40.64
2023-05-22T18:12:38.176Z,39.57
2023-05-22T18:15:09.848Z,41.01
2023-05-22T18:17:39.059Z,41.65
2023-05-22T18:20:08.780Z,41.73
2023-05-22T18:22:39.011Z,42.89
2023-05-22T18:25:08.356Z,42.53
2023-05-22T18:27:36.948Z,44.27
2023-05-22T18:30:06.611Z,42.05
2023-05-22T18:32:35.600Z,43.96
2023-05-22T18:35:05.882Z,43.50
2023-05-22T18:37:34.762Z,44.38
2023-05-22T18:40:06.573Z,44.62
2023-05-22T18:42:35.712Z,44.50
2023-05-22T18:45:06.197Z,47.39
2023-05-22T18:47:35.050Z,47.90
2023-05-22T18:50:07.375Z,47.40
2023-05-22T18:52:36.487Z,47.91
2023-05-22T18:55:06.216Z,48.78
2023-05-22T18:57:36.506Z,48.35
2023-05-22T19:00:07.284Z,47.42
2023-05-22T19:02:36.956Z,47.59
2023-05-22T19:05:06.367Z,49.17
2023-05-22T19:07:36.230Z,46.30
2023-05-22T19:10:07.913Z,48.70
2023-05-22T19:12:37.556Z,48.73
2023-05-22T19:15:08.017Z,46.11
2023-05-22T19:17:37.056Z,49.29
2023-05-22T19:20:07.724Z,46.79
2023-05-22T19:22:36.996Z,47.04
2023-05-22T19:25:07.613Z,53.10
2023-05-22T19:27:39.001Z,55.01
2023-05-22T19:30:08.660Z,54.42
2023-05-22T19:32:37.738Z,56.94
2023-05-22T19:35:08.146Z,57.99
2023-05-22T19:37:37.499Z,54.13
2023-05-22T19:40:07.470Z,52.92
2023-05-22T19:42:38.493Z,57.04
2023-05-22T19:45:08.175Z,54.43
2023-05-22T19:47:36.911Z,58.26
2023-05-22T19:50:06.771Z,54.11
2023-05-22T19:52:35.704Z,54.06
2023-05-22T19:55:05.596Z,53.33
2023-05-22T19:57:34.251Z,50.65
2023-05-22T20:00:06.983Z,52.52
2023-05-22T20:02:35.809Z,56.47
2023-05-22T20:05:05.251Z,57.35
2023-05-22T20:07:34.194Z,57.46
2023-05-22T20:10:06.803Z,56.21
2023-05-22T20:12:36.054Z,55.80
2023-05-22T20:15:10.825Z,54.42
2023-05-22T20:17:41.839Z,58.74
2023-05-22T20:20:11.285Z,56.41
2023-05-22T20:22:40.706Z,60.51
2023-05-22T20:25:10.597Z,58.06
2023-05-22T20:27:40.030Z,58.57
2023-05-22T20:30:11.706Z,59.50
2023-05-22T20:32:42.799Z,58.89
2023-05-22T20:35:11.738Z,59.43
2023-05-22T20:37:41.906Z,63.15
2023-05-22T20:40:11.175Z,62.02
2023-05-22T20:42:42.822Z,64.11
2023-05-22T20:45:14.445Z,66.23
2023-05-22T20:47:45.024Z,65.27
2023-05-22T20:50:14.283Z,66.58
2023-05-22T20:52:46.011Z,62.72
2023-05-22T20:55:15.018Z,66.85
2023-05-22T20:57:43.973Z,69.21
2023-05-22T21:00:14.229Z,67.33
2023-05-22T21:02:43.269Z,62.41
2023-05-22T21:05:12.131Z,65.36
2023-05-22T21:07:40.914Z,67.06
2023-05-22T21:10:10.355Z,65.48
2023-05-22T21:12:39.102Z,66.83
2023-05-22T21:15:08.342Z,67.50
2023-05-22T21:17:37.451Z,68.12
2023-05-22T21:20:07.007Z,64.44
2023-05-22T21:22:35.816Z,65.59
2023-05-22T21:25:05.050Z,65.51
2023-05-22T21:27:33.903Z,70.94
2023-05-22T21:30:02.707Z,72.64
2023-05-22T21:32:31.686Z,73.09
2023-05-22T21:35:00.466Z,72.12
2023-05-22T21:37:29.412Z,68.58
2023-05-22T21:39:58.370Z,72.83
2023-05-22T21:42:34.780Z,71.32
2023-05-22T21:45:13.703Z,68.60
2023-05-22T21:47:42.596Z,72.04
2023-05-22T21:50:12.071Z,70.92
2023-05-22T21:52:40.779Z,70.58
2023-05-22T21:55:09.898Z,72.32
2023-05-22T21:57:38.922Z,75.64
2023-05-22T22:00:08.397Z,75.18
2023-05-22T22:02:37.282Z,77.04
2023-05-22T22:05:06.632Z,73.90
2023-05-22T22:07:35.349Z,76.65
2023-05-22T22:10:04.544Z,76.60
2023-05-22T22:12:33.452Z,74.96
2023-05-22T22:15:02.732Z,71.84
2023-05-22T22:17:31.598Z,72.81
2023-05-22T22:20:00.524Z,73.45
2023-05-22T22:22:29.385Z,73.16
2023-05-22T22:24:58.258Z,71.94
2023-05-22T22:27:26.980Z,73.17
2023-05-22T22:29:55.673Z,76.43
2023-05-22T22:32:24.671Z,68.82
2023-05-22T22:34:54.261Z,73.66
2023-05-22T22:37:23.018Z,75.88
2023-05-22T22:39:51.814Z,77.58
2023-05-22T22:42:21.133Z,73.55
2023-05-22T22:44:50.036Z,72.01
2023-05-22T22:47:18.723Z,75.39
2023-05-22T22:49:47.690Z,76.91
2023-05-22T22:52:16.469Z,76.97
2023-05-22T22:54:45.408Z,76.06
2023-05-22T22:57:14.554Z,77.09
2023-05-22T22:59:43.419Z,77.48
2023-05-22T23:02:12.291Z,77.73
2023-05-22T23:04:41.307Z,76.13
2023-05-22T23:07:10.046Z,78.32
2023-05-22T23:09:40.396Z,78.06
2023-05-22T23:12:10.116Z,77.98
2023-05-22T23:14:38.900Z,78.97
2023-05-22T23:17:07.818Z,78.95
2023-05-22T23:19:36.726Z,80.08
2023-05-22T23:22:05.730Z,80.88
2023-05-22T23:24:34.556Z,80.53
2023-05-22T23:27:03.339Z,78.22
2023-05-22T23:29:32.352Z,81.19
2023-05-22T23:32:01.317Z,81.76
2023-05-22T23:34:30.110Z,83.83
2023-05-22T23:36:58.996Z,82.69
2023-05-22T23:39:27.703Z,83.33
2023-05-22T23:41:56.488Z,82.98
2023-05-22T23:44:25.356Z,81.89
2023-05-22T23:46:54.402Z,79.63
2023-05-22T23:49:25.618Z,81.38
2023-05-22T23:51:54.436Z,81.63
2023-05-22T23:54:23.186Z,80.53
2023-05-22T23:56:52.192Z,84.50
2023-05-22T23:59:21.806Z,83.90
